CheckWX is a tool to help pilots better visualize weather data.  It is not intended as a substitute for an official pre-flight weather briefing.

19:25:06 UTC

SBIH TAF
Itaituba Airport
Itaituba, Brazil
TAF SBIH 191500Z 1918/2006 07008KT 9999 SCT025 FEW030TCUTX34/1919Z TN32/1921Z BECMG 1921/1923 00000KT RMK PHQ

Jun-19@
18:00 UTC

Jun-19 @ 18:00 UTC

Jun-19@
21:00 UTC

Jun-19 @ 21:00 UTC

TAF SBIH 191500Z 1918/2006 07008KT 9999 SCT025 FEW030TCUTX34/1919Z TN32/1921Z
Wind
  • 070° at 8 KTS
Cloud Levels
  • Scattered at 2,500' AGL

Jun-19@
21:00 UTC

Jun-19 @ 21:00 UTC

Jun-20@
06:00 UTC

Jun-20 @ 06:00 UTC

BECMG 1921/1923 00000KT RMK PHQ

Becoming

Becoming Conditions expected by Wed, Jun 19, 2019 @ 23:00 UTC

Cloud Levels
  • Scattered at 2,500' AGL